Time;durP1;ratioP1;P1;durP2;ratioP2;P2;SDS_P1;SDS_P2;PMS_P1;PMS_P2;Temp;Humidity;BMP_temperature;BMP_pressure;BME280_temperature;BME280_humidity;BME280_pressure;Samples;Min_cycle;Max_cycle;Signal;HPM_P1;HPM_P2
2022/09/30 00:01:28;;;;;;;2.92;2.58;;;8.80;99.90;;;;;;4971165;28;20053;-80
2022/09/30 00:03:55;;;;;;;3.22;2.92;;;8.80;99.90;;;;;;4987019;28;20046;-84
2022/09/30 00:06:22;;;;;;;3.60;2.42;;;8.40;99.90;;;;;;4987420;28;20074;-83
2022/09/30 00:08:48;;;;;;;2.50;2.30;;;9.20;99.90;;;;;;4971598;28;20438;-83
2022/09/30 00:11:20;;;;;;;3.10;2.58;;;8.80;99.90;;;;;;4987547;28;20109;-80
2022/09/30 00:13:47;;;;;;;2.40;2.20;;;8.70;99.90;;;;;;4984652;28;20048;-83
2022/09/30 00:16:14;;;;;;;2.95;2.75;;;8.60;99.90;;;;;;4987237;28;20494;-81
2022/09/30 00:18:42;;;;;;;3.72;2.58;;;9.40;99.90;;;;;;4988397;28;20363;-79
2022/09/30 00:21:09;;;;;;;2.80;2.50;;;8.70;99.90;;;;;;4987777;28;20186;-83
2022/09/30 00:23:37;;;;;;;2.58;2.38;;;9.60;99.90;;;;;;4987001;28;20564;-86
2022/09/30 00:26:10;;;;;;;3.10;2.80;;;8.90;99.90;;;;;;4971468;28;20047;-86
2022/09/30 00:28:36;;;;;;;3.70;2.35;;;8.60;99.90;;;;;;4972400;28;20078;-86
2022/09/30 00:31:06;;;;;;;2.38;2.17;;;10.40;99.90;;;;;;4973368;28;20046;-84
2022/09/30 00:33:33;;;;;;;2.65;2.45;;;8.50;99.90;;;;;;4988527;28;20101;-82
2022/09/30 00:35:59;;;;;;;3.05;2.75;;;8.50;99.90;;;;;;4970552;28;20045;-78
2022/09/30 00:38:25;;;;;;;2.45;2.25;;;8.50;99.90;;;;;;4988576;28;20038;-78
2022/09/30 00:40:51;;;;;;;3.83;2.40;;;8.40;99.90;;;;;;4971265;28;20501;-82
2022/09/30 00:43:39;;;;;;;1.92;1.83;;;8.40;99.90;;;;;;4986181;28;20046;-77
2022/09/30 00:46:07;;;;;;;2.45;2.25;;;8.40;99.90;;;;;;4964751;28;20098;-84
2022/09/30 00:48:35;;;;;;;2.50;2.25;;;9.70;99.90;;;;;;4973924;28;20050;-80
2022/09/30 00:51:03;;;;;;;2.95;2.55;;;8.30;99.90;;;;;;4991363;28;20045;-86
2022/09/30 00:53:51;;;;;;;3.60;3.30;;;8.10;99.90;;;;;;4974400;28;20042;-81
2022/09/30 00:56:21;;;;;;;2.90;2.70;;;8.40;99.90;;;;;;4990254;28;20046;-84
2022/09/30 00:58:54;;;;;;;2.88;2.67;;;8.30;99.90;;;;;;4984400;28;20402;-80
2022/09/30 01:01:21;;;;;;;4.45;2.88;;;8.90;99.90;;;;;;4992246;28;20513;-85
2022/09/30 01:03:55;;;;;;;3.38;3.13;;;8.20;99.90;;;;;;4989921;28;20050;-81
2022/09/30 01:06:22;;;;;;;3.08;2.75;;;8.10;99.90;;;;;;4990976;28;20061;-80
2022/09/30 01:08:48;;;;;;;2.97;2.75;;;8.10;99.90;;;;;;4989944;28;20051;-85
2022/09/30 01:11:14;;;;;;;3.35;3.05;;;8.10;99.90;;;;;;4990544;28;20069;-83
2022/09/30 01:13:43;;;;;;;3.72;3.42;;;9.50;99.90;;;;;;4981403;28;20502;-80
2022/09/30 01:16:40;;;;;;;3.25;2.97;;;8.80;99.90;;;;;;4993324;28;20058;-82
2022/09/30 01:19:25;;;;;;;3.65;3.38;;;8.20;99.90;;;;;;4972013;28;20046;-81
2022/09/30 01:22:02;;;;;;;3.67;3.08;;;9.50;99.90;;;;;;4989348;28;20073;-82
2022/09/30 01:25:03;;;;;;;3.35;3.13;;;8.20;99.90;;;;;;4979382;28;20112;-82
2022/09/30 01:28:06;;;;;;;3.50;3.20;;;8.20;99.90;;;;;;4991324;28;20046;-81
2022/09/30 01:31:04;;;;;;;3.05;2.85;;;8.20;99.90;;;;;;4991050;28;20046;-83
2022/09/30 01:33:32;;;;;;;3.00;2.80;;;8.20;99.90;;;;;;4975646;28;20402;-83
2022/09/30 01:35:58;;;;;;;3.45;3.22;;;8.20;99.90;;;;;;4991428;28;20132;-86
2022/09/30 01:38:52;;;;;;;3.10;2.80;;;9.60;99.90;;;;;;4973376;28;20125;-79
2022/09/30 01:41:34;;;;;;;2.40;2.30;;;8.20;99.90;;;;;;4971515;28;20108;-83
2022/09/30 01:44:13;;;;;;;3.20;2.95;;;8.80;99.90;;;;;;4984582;28;20509;-83
2022/09/30 01:47:03;;;;;;;2.38;2.28;;;10.20;99.90;;;;;;4989098;28;20737;-81
2022/09/30 01:49:44;;;;;;;14.32;2.85;;;8.00;99.90;;;;;;4989716;28;20070;-80
2022/09/30 01:52:24;;;;;;;3.25;2.95;;;7.90;99.90;;;;;;4989102;28;20065;-81
2022/09/30 01:55:05;;;;;;;3.13;2.92;;;7.90;99.90;;;;;;4990112;28;20034;-82
2022/09/30 01:57:51;;;;;;;2.70;2.50;;;7.90;99.90;;;;;;4973625;28;20196;-80
2022/09/30 02:00:18;;;;;;;3.13;2.90;;;7.90;99.90;;;;;;4968540;28;20082;-83
2022/09/30 02:02:59;;;;;;;4.78;2.78;;;9.50;99.90;;;;;;4988658;28;20065;-78
2022/09/30 02:05:36;;;;;;;4.72;2.90;;;9.30;99.90;;;;;;4990214;28;20177;-79
2022/09/30 02:08:37;;;;;;;3.95;2.63;;;7.80;99.90;;;;;;4967261;28;20569;-81
2022/09/30 02:11:18;;;;;;;6.80;2.55;;;7.80;99.90;;;;;;4982580;28;20058;-82
2022/09/30 02:14:12;;;;;;;3.05;2.85;;;7.80;99.90;;;;;;4989579;28;20054;-83
2022/09/30 02:16:42;;;;;;;2.85;2.65;;;7.80;99.90;;;;;;4973631;28;20056;-85
2022/09/30 02:19:19;;;;;;;3.13;2.78;;;7.80;99.90;;;;;;4984068;28;20070;-85
2022/09/30 02:22:04;;;;;;;2.50;2.30;;;8.20;99.90;;;;;;4988321;28;20058;-85
2022/09/30 02:24:37;;;;;;;9.13;3.00;;;7.70;99.90;;;;;;4986383;28;20494;-81
2022/09/30 02:27:08;;;;;;;2.90;2.70;;;8.30;99.90;;;;;;4988623;28;20035;-83
2022/09/30 02:29:38;;;;;;;4.70;2.17;;;7.70;99.90;;;;;;4973138;28;20049;-85
2022/09/30 02:32:34;;;;;;;3.55;2.63;;;7.50;99.90;;;;;;4972654;28;20046;-85
2022/09/30 02:35:07;;;;;;;4.97;2.30;;;9.50;99.90;;;;;;4965706;28;20097;-83
2022/09/30 02:37:40;;;;;;;2.38;2.17;;;7.50;99.90;;;;;;4974263;28;20482;-86
2022/09/30 02:40:39;;;;;;;2.37;2.10;;;8.90;99.90;;;;;;4968908;28;20057;-86
2022/09/30 02:43:06;;;;;;;2.67;2.20;;;7.40;99.90;;;;;;4985274;28;20058;-84
2022/09/30 02:45:43;;;;;;;1.85;1.75;;;7.30;99.90;;;;;;4988648;28;20494;-83
2022/09/30 02:48:14;;;;;;;2.17;1.83;;;7.40;99.90;;;;;;4972330;28;20054;-80
2022/09/30 02:50:50;;;;;;;2.28;2.17;;;7.80;99.90;;;;;;4972691;28;20089;-81
2022/09/30 02:53:33;;;;;;;3.47;2.08;;;8.90;99.90;;;;;;4988556;28;20070;-81
2022/09/30 02:56:38;;;;;;;2.38;2.17;;;7.20;99.90;;;;;;4982387;28;20053;-81
2022/09/30 02:59:04;;;;;;;2.15;1.95;;;7.20;99.90;;;;;;4966144;28;20038;-81
2022/09/30 03:01:31;;;;;;;2.08;1.52;;;8.60;99.90;;;;;;4972241;28;20363;-85
2022/09/30 03:04:02;;;;;;;1.75;1.65;;;7.10;99.90;;;;;;4987690;28;20050;-78
2022/09/30 03:06:28;;;;;;;1.80;1.70;;;7.10;99.90;;;;;;4988232;28;20085;-84
2022/09/30 03:08:53;;;;;;;1.70;1.60;;;8.70;99.90;;;;;;4989395;28;20061;-82
2022/09/30 03:11:23;;;;;;;1.85;1.75;;;6.10;99.90;;;;;;4987829;28;20054;-80
2022/09/30 03:13:48;;;;;;;1.45;1.35;;;8.70;99.90;;;;;;4988140;28;20038;-81
2022/09/30 03:16:32;;;;;;;2.75;1.80;;;8.80;99.90;;;;;;4972081;28;20050;-79
2022/09/30 03:19:18;;;;;;;1.50;1.40;;;7.20;99.90;;;;;;4987185;28;20046;-79
2022/09/30 03:21:46;;;;;;;1.75;1.65;;;7.20;99.90;;;;;;4987957;28;20070;-78
2022/09/30 03:24:29;;;;;;;2.20;1.75;;;7.20;99.90;;;;;;4981497;28;20390;-79
2022/09/30 03:27:30;;;;;;;1.75;1.52;;;7.20;99.90;;;;;;4972599;28;20121;-82
2022/09/30 03:29:59;;;;;;;2.35;1.58;;;7.10;99.90;;;;;;4975974;28;20038;-82
2022/09/30 03:32:51;;;;;;;2.92;1.50;;;9.40;99.90;;;;;;4989593;28;20042;-80
2022/09/30 03:35:26;;;;;;;1.67;1.50;;;7.20;99.90;;;;;;4986116;28;20038;-77
2022/09/30 03:38:13;;;;;;;1.50;1.25;;;8.60;99.90;;;;;;4972155;28;20042;-79
2022/09/30 03:41:07;;;;;;;1.10;1.10;;;7.20;99.90;;;;;;4989376;28;20184;-79
2022/09/30 03:43:42;;;;;;;2.35;1.38;;;7.20;99.90;;;;;;4984950;28;20117;-81
2022/09/30 03:46:33;;;;;;;1.52;1.40;;;9.00;99.90;;;;;;4987211;28;20121;-83
2022/09/30 03:49:05;;;;;;;1.60;1.50;;;7.20;99.90;;;;;;4962587;28;20046;-85
2022/09/30 03:51:34;;;;;;;2.83;1.55;;;7.10;99.90;;;;;;4988767;28;20038;-78
2022/09/30 03:54:00;;;;;;;2.97;1.45;;;7.40;99.90;;;;;;4965026;28;20125;-85
2022/09/30 03:56:30;;;;;;;1.63;1.52;;;7.20;99.90;;;;;;4971581;28;20122;-83
2022/09/30 03:58:56;;;;;;;3.75;2.05;;;9.00;99.90;;;;;;4971185;28;20394;-85
2022/09/30 04:01:23;;;;;;;1.83;1.73;;;9.20;99.90;;;;;;4989757;28;20034;-78
2022/09/30 04:03:52;;;;;;;3.38;1.95;;;7.20;99.90;;;;;;4988427;28;20272;-86
2022/09/30 04:06:23;;;;;;;2.13;1.67;;;7.20;99.90;;;;;;4971556;28;20125;-84
2022/09/30 04:08:49;;;;;;;2.17;1.98;;;8.00;99.90;;;;;;4972214;28;20057;-79
2022/09/30 04:11:16;;;;;;;2.30;2.10;;;5.90;99.90;;;;;;4987742;28;20038;-82
2022/09/30 04:13:42;;;;;;;2.28;2.08;;;7.10;99.90;;;;;;4986723;28;20117;-83
2022/09/30 04:16:08;;;;;;;4.18;2.55;;;8.50;99.90;;;;;;4989590;28;20129;-83
2022/09/30 04:18:38;;;;;;;2.55;2.35;;;6.60;99.90;;;;;;4971698;28;20030;-84
2022/09/30 04:21:08;;;;;;;3.90;2.10;;;5.50;99.90;;;;;;4987020;28;20057;-81
2022/09/30 04:23:35;;;;;;;2.10;2.00;;;6.10;99.90;;;;;;4987284;28;20042;-82
2022/09/30 04:26:01;;;;;;;5.80;3.08;;;8.00;99.90;;;;;;4987742;28;20074;-81
2022/09/30 04:28:26;;;;;;;4.57;3.63;;;8.90;99.90;;;;;;4971478;28;20104;-82
2022/09/30 04:30:52;;;;;;;3.90;3.60;;;8.30;99.90;;;;;;4988090;28;20046;-77
2022/09/30 04:33:18;;;;;;;5.47;3.90;;;8.50;99.90;;;;;;4987783;28;20121;-86
2022/09/30 04:35:43;;;;;;;3.72;3.00;;;7.00;99.90;;;;;;4988896;28;20100;-82
2022/09/30 04:38:09;;;;;;;4.90;3.58;;;6.90;99.90;;;;;;4989155;28;20092;-80
2022/09/30 04:40:36;;;;;;;4.20;3.53;;;6.90;99.90;;;;;;4987955;28;20039;-85
2022/09/30 04:43:02;;;;;;;3.75;3.45;;;6.40;99.90;;;;;;4988799;28;20066;-79
2022/09/30 04:45:28;;;;;;;3.63;3.33;;;8.10;99.90;;;;;;4971857;28;20069;-83
2022/09/30 04:47:54;;;;;;;3.15;2.95;;;8.10;99.90;;;;;;4987333;28;20038;-81
2022/09/30 04:50:20;;;;;;;9.20;3.47;;;6.70;99.90;;;;;;4988547;28;20033;-84
2022/09/30 04:52:46;;;;;;;4.10;3.50;;;6.80;99.90;;;;;;4987142;28;20069;-84
2022/09/30 04:55:12;;;;;;;5.25;3.90;;;6.80;99.90;;;;;;4986708;28;20046;-81
2022/09/30 04:57:38;;;;;;;6.07;5.07;;;6.80;99.90;;;;;;4987663;28;20034;-82
2022/09/30 05:00:07;;;;;;;9.27;4.97;;;6.60;99.90;;;;;;4989473;28;20046;-83
2022/09/30 05:02:33;;;;;;;4.13;3.67;;;6.70;99.90;;;;;;4970312;28;20042;-82
2022/09/30 05:04:59;;;;;;;8.00;3.70;;;8.10;99.90;;;;;;4975311;28;20042;-80
2022/09/30 05:07:25;;;;;;;4.35;3.95;;;6.50;99.90;;;;;;4987801;28;20355;-85
2022/09/30 05:09:52;;;;;;;6.60;4.78;;;7.90;99.90;;;;;;4971103;28;20137;-81
2022/09/30 05:12:18;;;;;;;5.78;5.18;;;8.60;99.90;;;;;;4965459;28;20497;-81
2022/09/30 05:14:47;;;;;;;6.28;4.70;;;5.10;99.90;;;;;;4987773;28;20046;-76
2022/09/30 05:17:12;;;;;;;8.98;6.07;;;6.50;99.90;;;;;;4986836;28;20101;-82
2022/09/30 05:19:38;;;;;;;5.43;4.93;;;6.60;99.90;;;;;;4987577;28;20035;-79
2022/09/30 05:22:03;;;;;;;5.60;3.95;;;8.30;99.90;;;;;;4987688;28;20061;-78
2022/09/30 05:24:29;;;;;;;3.65;3.22;;;7.60;99.90;;;;;;4970815;28;20508;-79
2022/09/30 05:26:55;;;;;;;3.70;3.40;;;8.30;99.90;;;;;;4987003;28;20097;-79
2022/09/30 05:29:21;;;;;;;3.55;3.08;;;6.60;99.90;;;;;;4988566;28;20047;-79
2022/09/30 05:31:46;;;;;;;4.63;3.90;;;6.60;99.90;;;;;;4970801;28;20054;-81
2022/09/30 05:34:15;;;;;;;2.97;2.63;;;6.60;99.90;;;;;;4972169;28;20050;-80
2022/09/30 05:36:42;;;;;;;3.65;3.15;;;8.30;99.90;;;;;;4990033;28;20400;-78
2022/09/30 05:39:09;;;;;;;3.22;2.92;;;5.70;99.90;;;;;;4990624;28;20038;-77
2022/09/30 05:41:34;;;;;;;3.15;2.85;;;6.60;99.90;;;;;;4990838;28;20074;-80
2022/09/30 05:44:00;;;;;;;4.07;3.17;;;6.60;99.90;;;;;;4974196;28;20074;-78
2022/09/30 05:46:27;;;;;;;5.15;3.20;;;6.60;99.90;;;;;;4974134;28;20133;-79
2022/09/30 05:48:53;;;;;;;2.83;2.63;;;7.90;99.90;;;;;;4992111;28;20126;-76
2022/09/30 05:51:19;;;;;;;4.38;2.83;;;6.50;99.90;;;;;;4973646;28;20042;-82
2022/09/30 05:53:45;;;;;;;4.20;2.90;;;6.60;99.90;;;;;;4989997;28;20065;-84
2022/09/30 05:56:11;;;;;;;3.60;3.30;;;6.60;99.90;;;;;;4974157;28;20038;-79
2022/09/30 05:58:38;;;;;;;3.42;3.15;;;6.50;99.90;;;;;;4973370;28;20050;-85
2022/09/30 06:01:07;;;;;;;4.70;2.88;;;8.40;99.90;;;;;;4973867;28;20486;-86
2022/09/30 06:03:33;;;;;;;3.70;3.03;;;8.20;99.90;;;;;;4989923;28;20042;-82
2022/09/30 06:05:59;;;;;;;4.07;2.90;;;6.60;99.90;;;;;;4973048;28;20535;-84
2022/09/30 06:08:25;;;;;;;4.53;2.80;;;6.50;99.90;;;;;;4989813;28;20030;-84
2022/09/30 06:10:51;;;;;;;4.60;3.25;;;6.60;99.90;;;;;;4991257;28;20042;-83
2022/09/30 06:13:16;;;;;;;3.33;3.03;;;6.50;99.90;;;;;;4989189;28;20549;-80
2022/09/30 06:15:43;;;;;;;3.28;2.95;;;6.50;99.90;;;;;;4985966;28;20181;-81
2022/09/30 06:18:11;;;;;;;3.47;3.00;;;6.60;99.90;;;;;;4987921;28;20042;-83
2022/09/30 06:20:37;;;;;;;2.70;2.30;;;6.60;99.90;;;;;;4989751;28;20050;-80
2022/09/30 06:23:03;;;;;;;3.15;2.85;;;6.60;99.90;;;;;;4992530;28;20046;-85
2022/09/30 06:25:30;;;;;;;2.78;2.58;;;6.30;99.90;;;;;;4990004;28;20132;-85
2022/09/30 06:27:56;;;;;;;3.15;2.78;;;7.20;99.90;;;;;;4989038;28;20053;-80
2022/09/30 06:30:22;;;;;;;2.95;2.75;;;8.30;99.90;;;;;;4991427;28;20056;-79
2022/09/30 06:32:48;;;;;;;10.98;8.52;;;6.60;99.90;;;;;;4989299;28;20121;-80
2022/09/30 06:35:14;;;;;;;13.18;9.38;;;8.10;99.90;;;;;;4989615;28;20100;-81
2022/09/30 06:37:40;;;;;;;6.68;5.45;;;6.70;99.90;;;;;;4990763;28;20112;-82
2022/09/30 06:40:07;;;;;;;5.30;4.78;;;8.40;99.90;;;;;;4988741;28;20489;-80
2022/09/30 06:42:33;;;;;;;3.28;2.97;;;6.60;99.90;;;;;;4973251;28;20042;-80
2022/09/30 06:44:59;;;;;;;3.78;3.47;;;8.80;99.90;;;;;;4990600;28;20149;-83
2022/09/30 06:47:25;;;;;;;3.70;3.40;;;8.10;99.90;;;;;;4990614;28;20526;-83
2022/09/30 06:49:51;;;;;;;3.55;3.25;;;6.70;99.90;;;;;;4990317;28;20046;-80
2022/09/30 06:52:18;;;;;;;4.80;4.28;;;6.80;99.90;;;;;;4990912;28;20061;-82
2022/09/30 06:54:45;;;;;;;6.18;4.10;;;7.60;99.90;;;;;;4972962;28;20050;-83
2022/09/30 06:57:11;;;;;;;5.35;4.85;;;8.80;99.90;;;;;;4973663;28;20368;-84
2022/09/30 06:59:37;;;;;;;5.30;4.80;;;6.90;99.90;;;;;;4991147;28;20060;-80
2022/09/30 07:02:03;;;;;;;9.65;6.50;;;7.00;99.90;;;;;;4972181;28;20546;-80
2022/09/30 07:04:29;;;;;;;4.82;4.28;;;8.70;99.90;;;;;;4973123;28;20047;-81
2022/09/30 07:06:55;;;;;;;5.78;4.43;;;7.10;99.90;;;;;;4973370;28;20054;-79
2022/09/30 07:09:20;;;;;;;4.82;4.38;;;7.10;99.90;;;;;;4973121;28;20508;-80
2022/09/30 07:11:47;;;;;;;5.70;4.93;;;7.10;99.90;;;;;;4990363;28;20076;-81
2022/09/30 07:14:13;;;;;;;5.68;5.20;;;8.70;99.90;;;;;;4981899;28;20038;-83
2022/09/30 07:16:39;;;;;;;5.57;5.07;;;7.20;99.90;;;;;;4988412;28;20073;-79
2022/09/30 07:19:06;;;;;;;6.32;4.72;;;7.20;99.90;;;;;;4972648;28;20043;-81
2022/09/30 07:21:32;;;;;;;7.60;5.90;;;8.60;99.90;;;;;;4988476;28;20517;-76
2022/09/30 07:23:58;;;;;;;9.48;7.13;;;7.70;99.90;;;;;;4988380;28;20084;-79
2022/09/30 07:26:25;;;;;;;7.35;6.55;;;7.60;99.90;;;;;;4989049;28;20049;-79
2022/09/30 07:28:52;;;;;;;7.22;6.53;;;7.50;99.90;;;;;;4988560;28;20050;-78
2022/09/30 07:31:23;;;;;;;8.82;5.78;;;7.60;99.90;;;;;;4989696;28;20114;-82
2022/09/30 07:33:52;;;;;;;8.63;6.45;;;7.70;99.90;;;;;;4988670;28;20042;-82
2022/09/30 07:36:23;;;;;;;8.02;6.45;;;7.70;99.90;;;;;;4980842;28;20077;-80
2022/09/30 07:38:50;;;;;;;7.15;5.82;;;8.50;99.90;;;;;;4988890;28;20080;-79
2022/09/30 07:41:25;;;;;;;10.45;7.50;;;9.20;99.90;;;;;;4982398;28;20050;-82
2022/09/30 07:43:55;;;;;;;9.65;7.93;;;7.90;99.90;;;;;;4981832;28;20107;-82
2022/09/30 07:46:27;;;;;;;11.02;7.32;;;9.00;99.90;;;;;;4982291;28;20305;-81
2022/09/30 07:48:56;;;;;;;10.52;8.20;;;8.10;99.90;;;;;;4985767;28;20057;-81
2022/09/30 07:51:26;;;;;;;10.40;8.68;;;8.10;99.90;;;;;;4966447;28;20173;-78
2022/09/30 07:53:55;;;;;;;7.78;7.00;;;8.20;99.90;;;;;;4987930;28;20640;-77
2022/09/30 07:56:22;;;;;;;8.82;7.90;;;8.30;99.90;;;;;;4987452;28;20049;-79
2022/09/30 07:58:48;;;;;;;8.30;7.53;;;8.40;99.90;;;;;;4960484;28;20039;-81
2022/09/30 08:01:15;;;;;;;9.00;8.10;;;8.40;99.90;;;;;;4987248;28;20058;-78
2022/09/30 08:03:45;;;;;;;8.27;7.40;;;8.40;99.90;;;;;;4984180;28;20054;-80
2022/09/30 08:06:15;;;;;;;7.88;6.97;;;8.70;99.90;;;;;;4981051;28;20335;-79
2022/09/30 08:08:43;;;;;;;7.13;6.43;;;9.20;99.90;;;;;;4989313;28;20038;-81
2022/09/30 08:11:08;;;;;;;7.43;6.72;;;8.60;99.90;;;;;;4988359;28;20056;-81
2022/09/30 08:13:34;;;;;;;7.93;7.13;;;10.20;99.90;;;;;;4987895;28;20050;-87
2022/09/30 08:16:00;;;;;;;9.80;8.02;;;8.90;99.90;;;;;;4972061;28;20096;-80
2022/09/30 08:18:26;;;;;;;8.15;7.35;;;9.00;99.90;;;;;;4971004;28;20478;-79
2022/09/30 08:20:55;;;;;;;8.73;7.82;;;9.00;99.90;;;;;;4987728;28;20185;-81
2022/09/30 08:23:21;;;;;;;14.82;8.60;;;9.00;99.90;;;;;;4971319;28;20049;-78
2022/09/30 08:25:47;;;;;;;13.30;8.77;;;9.10;99.90;;;;;;4986955;28;20038;-82
2022/09/30 08:28:13;;;;;;;19.48;9.75;;;9.20;99.90;;;;;;4988264;28;20046;-80
2022/09/30 08:30:41;;;;;;;18.85;9.80;;;9.30;99.90;;;;;;4961232;28;20039;-80
2022/09/30 08:33:07;;;;;;;12.68;9.38;;;10.00;99.90;;;;;;4969863;28;20034;-82
2022/09/30 08:35:35;;;;;;;16.15;10.48;;;9.30;99.90;;;;;;4964906;28;20054;-79
2022/09/30 08:38:01;;;;;;;21.88;9.05;;;9.30;99.90;;;;;;4965307;28;20129;-83
2022/09/30 08:40:32;;;;;;;13.30;10.13;;;9.40;99.90;;;;;;4988648;28;20133;-82
2022/09/30 08:43:13;;;;;;;12.90;9.55;;;9.50;99.90;;;;;;4971090;28;20482;-82
2022/09/30 08:45:39;;;;;;;15.75;10.23;;;9.50;99.90;;;;;;4971509;28;20038;-83
2022/09/30 08:48:16;;;;;;;12.10;8.95;;;11.30;99.90;;;;;;4985881;28;20129;-79
2022/09/30 08:51:12;;;;;;;14.07;9.43;;;9.60;99.90;;;;;;4971569;28;20042;-80
2022/09/30 08:53:41;;;;;;;17.65;9.20;;;9.70;99.90;;;;;;4980611;28;20053;-78
2022/09/30 08:56:10;;;;;;;9.70;7.78;;;11.00;99.90;;;;;;4987541;28;20144;-79
2022/09/30 08:58:39;;;;;;;11.82;8.55;;;9.70;99.90;;;;;;4970836;28;20101;-79
2022/09/30 09:01:23;;;;;;;8.18;7.40;;;9.90;99.90;;;;;;4987033;28;20346;-81
2022/09/30 09:03:49;;;;;;;10.05;7.45;;;9.80;99.90;;;;;;4983218;28;20085;-82
2022/09/30 09:06:41;;;;;;;11.38;8.68;;;11.20;99.90;;;;;;4988605;28;20413;-85
2022/09/30 09:09:43;;;;;;;9.93;8.88;;;9.90;99.90;;;;;;4985600;28;20691;-79
2022/09/30 09:12:15;;;;;;;14.65;11.50;;;10.00;99.90;;;;;;4974607;28;20073;-78
2022/09/30 09:15:21;;;;;;;10.02;8.15;;;10.10;99.90;;;;;;4967975;28;20173;-78
2022/09/30 09:18:33;;;;;;;9.40;8.38;;;10.10;99.90;;;;;;4969236;28;20046;-78
2022/09/30 09:21:08;;;;;;;8.25;7.50;;;10.20;99.90;;;;;;4968331;28;20120;-77
2022/09/30 09:23:35;;;;;;;8.18;7.43;;;10.30;99.90;;;;;;4984906;28;20122;-78
2022/09/30 09:26:02;;;;;;;9.45;8.27;;;10.30;99.90;;;;;;4970821;28;20046;-77
2022/09/30 09:28:34;;;;;;;9.88;7.95;;;10.40;99.90;;;;;;4981879;28;20066;-81
2022/09/30 09:31:01;;;;;;;9.25;7.68;;;12.10;99.90;;;;;;4983146;28;20066;-80
2022/09/30 09:33:40;;;;;;;9.20;8.25;;;11.60;99.90;;;;;;4984076;28;20042;-81
2022/09/30 09:36:12;;;;;;;8.07;7.28;;;10.50;99.90;;;;;;4973556;28;20043;-78
2022/09/30 09:38:57;;;;;;;8.82;8.02;;;10.60;99.90;;;;;;4974004;28;20038;-78
2022/09/30 09:41:42;;;;;;;8.18;7.38;;;9.80;99.90;;;;;;4989493;28;20088;-78
2022/09/30 09:44:30;;;;;;;9.52;8.55;;;10.70;99.90;;;;;;4990597;28;20049;-78
2022/09/30 09:47:14;;;;;;;7.88;7.15;;;10.80;99.90;;;;;;4969956;28;20108;-78
2022/09/30 09:49:44;;;;;;;8.80;8.03;;;12.60;99.90;;;;;;4968879;28;20496;-79
2022/09/30 09:52:25;;;;;;;10.63;8.60;;;10.30;99.90;;;;;;4991248;28;20054;-78
2022/09/30 09:54:55;;;;;;;14.60;13.10;;;11.10;99.90;;;;;;4991302;28;20073;-79
2022/09/30 09:57:24;;;;;;;10.55;9.48;;;12.80;99.90;;;;;;4974119;28;20057;-78
2022/09/30 10:01:09;;;;;;;9.25;8.35;;;12.90;99.90;;;;;;4990010;28;20089;-81
2022/09/30 10:03:02;;;;;;;8.40;7.60;;;11.40;99.90;;;;;;4984027;28;20058;-82
2022/09/30 10:05:31;;;;;;;9.15;8.35;;;11.50;99.90;;;;;;4991680;28;20078;-82
2022/09/30 10:08:22;;;;;;;10.13;9.23;;;11.70;99.90;;;;;;4974109;28;20052;-82
2022/09/30 10:10:55;;;;;;;10.15;8.98;;;11.80;99.90;;;;;;4984477;28;20134;-84
2022/09/30 10:13:23;;;;;;;11.27;9.75;;;11.90;99.90;;;;;;4990186;28;20042;-85
2022/09/30 10:15:52;;;;;;;9.82;8.95;;;12.70;99.90;;;;;;4991338;28;20073;-82
2022/09/30 10:18:23;;;;;;;11.45;9.73;;;12.10;99.90;;;;;;4989396;28;20050;-87
2022/09/30 10:20:55;;;;;;;9.45;8.15;;;13.60;99.90;;;;;;4983394;28;20090;-78
2022/09/30 10:23:26;;;;;;;9.35;8.27;;;12.30;99.90;;;;;;4991879;28;20046;-76
2022/09/30 10:26:17;;;;;;;7.15;6.00;;;12.60;99.90;;;;;;4989953;28;20049;-80
2022/09/30 10:28:54;;;;;;;7.00;6.40;;;13.50;99.90;;;;;;4968379;28;20061;-81
2022/09/30 10:31:31;;;;;;;6.82;4.88;;;13.20;99.90;;;;;;4990293;28;20042;-78
2022/09/30 10:34:21;;;;;;;5.10;4.60;;;12.90;99.90;;;;;;4989355;28;20128;-82
2022/09/30 10:36:47;;;;;;;3.92;3.47;;;13.00;99.90;;;;;;4983097;28;20085;-78
2022/09/30 10:39:29;;;;;;;3.25;3.05;;;13.40;99.90;;;;;;4989741;28;20089;-77
2022/09/30 10:42:16;;;;;;;4.43;3.70;;;13.20;99.90;;;;;;4967043;28;20432;-82
2022/09/30 10:44:46;;;;;;;3.25;3.03;;;14.00;99.90;;;;;;4985521;28;20121;-81
2022/09/30 10:47:21;;;;;;;3.38;3.00;;;13.50;99.90;;;;;;4627401;28;10000368;-81
2022/09/30 10:50:03;;;;;;;3.17;2.88;;;13.60;99.90;;;;;;4984303;28;20085;-81
2022/09/30 10:52:33;;;;;;;4.22;3.78;;;13.70;99.90;;;;;;4970056;28;20050;-79
2022/09/30 10:55:04;;;;;;;4.13;3.83;;;13.80;99.90;;;;;;4972133;28;20038;-77
2022/09/30 10:57:37;;;;;;;3.15;2.90;;;13.80;99.90;;;;;;4982479;28;20058;-79
2022/09/30 11:00:17;;;;;;;4.05;2.40;;;13.90;99.90;;;;;;4983215;28;20055;-80
2022/09/30 11:02:46;;;;;;;3.97;2.42;;;14.10;99.90;;;;;;4975952;28;20042;-83
2022/09/30 11:05:23;;;;;;;3.08;2.30;;;14.20;99.90;;;;;;4983768;28;20518;-77
2022/09/30 11:08:00;;;;;;;2.17;2.08;;;14.30;99.90;;;;;;4978353;28;20042;-81
2022/09/30 11:10:40;;;;;;;3.42;2.65;;;14.40;99.90;;;;;;4985827;28;20054;-81
2022/09/30 11:13:10;;;;;;;3.40;1.90;;;14.50;99.90;;;;;;4639328;28;10000523;-80
2022/09/30 11:15:43;;;;;;;2.17;1.98;;;14.70;99.90;;;;;;4961438;28;20042;-77
2022/09/30 11:18:20;;;;;;;1.70;1.60;;;15.10;99.90;;;;;;4984581;28;20589;-77
2022/09/30 11:21:13;;;;;;;3.42;1.90;;;14.90;99.90;;;;;;4983510;28;20050;-77
2022/09/30 11:23:55;;;;;;;1.25;1.05;;;15.00;99.90;;;;;;4987934;28;20086;-79
2022/09/30 11:26:46;;;;;;;1.30;1.10;;;15.00;99.90;;;;;;4988018;28;20477;-78
2022/09/30 11:29:40;;;;;;;1.67;1.00;;;15.10;99.90;;;;;;4988347;28;20434;-79
2022/09/30 11:32:21;;;;;;;1.45;1.35;;;15.20;99.90;;;;;;4965823;28;20109;-76
2022/09/30 11:34:50;;;;;;;2.35;1.13;;;15.30;99.90;;;;;;4966241;28;20486;-78
2022/09/30 11:37:29;;;;;;;2.63;1.55;;;15.50;99.90;;;;;;4984225;28;20090;-76
2022/09/30 11:40:13;;;;;;;3.70;1.38;;;15.40;99.90;;;;;;4986786;28;20050;-83
2022/09/30 11:42:55;;;;;;;1.30;1.30;;;15.40;99.90;;;;;;4988614;28;20038;-76
2022/09/30 11:45:39;;;;;;;8.93;6.55;;;15.50;99.90;;;;;;4989048;28;20449;-77
2022/09/30 11:48:11;;;;;;;3.40;3.10;;;15.30;99.90;;;;;;4987133;28;20042;-77
2022/09/30 11:50:46;;;;;;;2.85;2.13;;;15.20;99.90;;;;;;4987733;28;20089;-79
2022/09/30 11:53:23;;;;;;;3.03;1.73;;;15.30;99.90;;;;;;4987258;28;20054;-80
2022/09/30 11:56:01;;;;;;;1.98;1.70;;;15.50;99.90;;;;;;4987495;28;20127;-76
2022/09/30 11:58:34;;;;;;;2.00;1.50;;;15.60;99.90;;;;;;4987645;28;20043;-80
2022/09/30 12:01:27;;;;;;;5.20;1.40;;;15.70;99.90;;;;;;4987537;28;20053;-80
2022/09/30 12:04:19;;;;;;;2.85;1.00;;;15.80;99.90;;;;;;4966993;28;20129;-78
2022/09/30 12:07:02;;;;;;;;;;;15.70;99.90;;;;;;4982073;28;20050;-81
2022/09/30 12:09:39;;;;;;;1.17;0.80;;;15.50;99.90;;;;;;4987993;28;20040;-76
2022/09/30 12:12:09;;;;;;;2.22;0.70;;;15.40;99.90;;;;;;4987242;28;20046;-82
2022/09/30 12:14:46;;;;;;;2.95;0.77;;;15.40;99.90;;;;;;4971155;28;20053;-78
2022/09/30 12:17:30;;;;;;;1.50;1.10;;;16.60;99.90;;;;;;4988331;28;20101;-75
2022/09/30 12:20:01;;;;;;;1.77;1.00;;;15.60;99.90;;;;;;4981848;28;20042;-77
2022/09/30 12:22:43;;;;;;;1.17;1.17;;;15.60;99.90;;;;;;4986046;28;20058;-76
2022/09/30 12:25:44;;;;;;;1.67;1.25;;;15.50;99.90;;;;;;4987171;28;20108;-76
2022/09/30 12:31:34;;;;;;;4.72;1.90;;;15.60;99.90;;;;;;4982805;28;20486;-76
2022/09/30 12:34:19;;;;;;;3.45;1.17;;;15.60;99.90;;;;;;4981189;28;20046;-76
2022/09/30 12:37:04;;;;;;;1.92;1.17;;;15.60;99.90;;;;;;4986812;28;20092;-77
2022/09/30 12:39:55;;;;;;;1.83;1.15;;;15.50;99.90;;;;;;4987293;28;20046;-76
2022/09/30 12:42:36;;;;;;;1.02;0.80;;;15.60;99.90;;;;;;4983330;28;20089;-77
2022/09/30 12:45:31;;;;;;;2.80;1.23;;;15.80;99.90;;;;;;4987617;28;20074;-79
2022/09/30 12:48:02;;;;;;;1.02;0.85;;;15.90;99.90;;;;;;4987695;28;20137;-76
2022/09/30 12:50:33;;;;;;;1.38;0.60;;;16.10;99.90;;;;;;4991101;28;20041;-77
2022/09/30 12:53:21;;;;;;;3.15;1.05;;;16.20;99.90;;;;;;4974299;28;20038;-81
2022/09/30 12:55:47;;;;;;;1.80;0.82;;;16.30;99.90;;;;;;4990621;28;20129;-82
2022/09/30 12:58:44;;;;;;;2.80;1.42;;;17.20;99.90;;;;;;4974428;28;20038;-78
2022/09/30 13:01:15;;;;;;;2.17;1.00;;;16.00;99.90;;;;;;4989989;28;20047;-80
2022/09/30 13:03:47;;;;;;;1.38;1.02;;;16.00;99.90;;;;;;4990674;28;20129;-85
2022/09/30 13:06:15;;;;;;;1.13;1.08;;;17.30;99.90;;;;;;4991804;28;20046;-83
2022/09/30 13:08:44;;;;;;;2.85;0.93;;;17.20;99.90;;;;;;4974646;28;20073;-79
2022/09/30 13:11:39;;;;;;;2.10;1.40;;;16.30;99.90;;;;;;4990342;28;20430;-78
2022/09/30 13:14:24;;;;;;;;;;;16.30;99.90;;;;;;4972556;28;20053;-83
2022/09/30 13:16:57;;;;;;;;;;;16.40;99.90;;;;;;4991519;28;20290;-82
2022/09/30 13:19:40;;;;;;;1.38;1.20;;;16.40;99.90;;;;;;4645229;28;10000473;-81
2022/09/30 13:22:28;;;;;;;2.78;1.20;;;16.40;99.90;;;;;;4972632;28;20118;-79
2022/09/30 13:25:01;;;;;;;3.58;1.10;;;16.40;99.90;;;;;;4988664;28;20125;-82
2022/09/30 13:27:44;;;;;;;1.50;1.30;;;16.30;99.90;;;;;;4971869;28;20141;-77
2022/09/30 13:30:13;;;;;;;4.63;1.40;;;16.20;99.90;;;;;;4982396;28;20465;-80